Terminal Aerodrome Forecast
Issued by NWS

Home | Current Version | Previous Version | Graphics & Text | Print | Product List | Glossary On
Versions: 1 2 3 4 5 6 7 8 9 10 11 12 13 14 15 16
215
FTUS43 KTOP 071612 AAB
TAFFOE
TAF AMD
KFOE 071612Z 0716/0812 31015G22KT P6SM SCT150
     FM071900 31022G33KT P6SM SCT090
     FM080000 31019G27KT P6SM BKN060
     FM080700 31020G28KT P6SM SCT020 OVC035=

USA.gov is the U.S. government's official web portal to all federal, state and local government web resources and services.